createdAt,value
2023-05-03T00:00:23.785Z,4.10
2023-05-03T00:02:53.922Z,4.47
2023-05-03T00:05:21.538Z,4.37
2023-05-03T00:07:49.733Z,4.57
2023-05-03T00:10:17.389Z,4.57
2023-05-03T00:12:45.037Z,3.83
2023-05-03T00:15:12.607Z,4.37
2023-05-03T00:17:40.170Z,4.53
2023-05-03T00:20:08.435Z,4.33
2023-05-03T00:22:36.588Z,4.50
2023-05-03T00:25:04.786Z,5.20
2023-05-03T00:27:32.395Z,4.77
2023-05-03T00:30:00.283Z,4.63
2023-05-03T00:32:28.411Z,4.13
2023-05-03T00:34:57.310Z,4.30
2023-05-03T00:37:25.989Z,4.20
2023-05-03T00:39:53.810Z,4.37
2023-05-03T00:42:21.348Z,5.27
2023-05-03T00:44:48.888Z,5.37
2023-05-03T00:47:17.157Z,4.30
2023-05-03T00:49:45.289Z,4.47
2023-05-03T00:52:13.514Z,4.53
2023-05-03T00:54:41.326Z,4.47
2023-05-03T00:57:08.885Z,4.93
2023-05-03T00:59:37.754Z,4.60
2023-05-03T01:02:05.751Z,4.57
2023-05-03T01:04:33.348Z,5.33
2023-05-03T01:07:23.623Z,4.57
2023-05-03T01:10:01.985Z,4.77
2023-05-03T01:12:53.993Z,5.10
2023-05-03T01:15:44.128Z,5.27
2023-05-03T01:18:18.506Z,4.97
2023-05-03T01:20:49.923Z,5.33
2023-05-03T01:24:04.189Z,5.40
2023-05-03T01:26:33.285Z,4.78
2023-05-03T01:29:00.837Z,5.60
2023-05-03T01:31:53.393Z,5.07
2023-05-03T01:35:08.840Z,5.17
2023-05-03T01:37:37.859Z,5.80
2023-05-03T01:40:08.788Z,5.03
2023-05-03T01:42:38.572Z,5.83
2023-05-03T01:45:07.135Z,5.33
2023-05-03T01:47:35.092Z,5.77
2023-05-03T01:50:02.970Z,4.80
2023-05-03T01:52:31.174Z,5.20
2023-05-03T01:54:59.993Z,5.17
2023-05-03T01:57:27.582Z,5.07
2023-05-03T01:59:55.175Z,5.20
2023-05-03T02:02:22.694Z,5.40
2023-05-03T02:04:50.650Z,5.90
2023-05-03T02:07:19.233Z,6.40
2023-05-03T02:09:46.850Z,5.40
2023-05-03T02:12:14.319Z,5.17
2023-05-03T02:14:41.946Z,5.63
2023-05-03T02:17:10.444Z,5.17
2023-05-03T02:19:38.624Z,5.77
2023-05-03T02:22:07.590Z,5.67
2023-05-03T02:24:36.168Z,5.37
2023-05-03T02:27:04.734Z,4.97
2023-05-03T02:29:33.366Z,4.90
2023-05-03T02:32:05.420Z,5.53
2023-05-03T02:34:33.471Z,21.30
2023-05-03T02:37:01.131Z,10.97
2023-05-03T02:39:30.417Z,6.37
2023-05-03T02:41:58.583Z,6.23
2023-05-03T02:44:26.793Z,6.30
2023-05-03T02:46:54.858Z,5.73
2023-05-03T02:49:23.172Z,6.60
2023-05-03T02:51:52.875Z,6.50
2023-05-03T02:54:20.407Z,6.13
2023-05-03T02:56:47.958Z,6.13
2023-05-03T02:59:15.610Z,6.87
2023-05-03T03:01:43.298Z,5.90
2023-05-03T03:04:11.261Z,6.40
2023-05-03T03:06:38.805Z,5.93
2023-05-03T03:09:06.409Z,6.20
2023-05-03T03:11:35.984Z,6.90
2023-05-03T03:14:03.476Z,6.00
2023-05-03T03:16:31.278Z,6.53
2023-05-03T03:18:58.958Z,6.30
2023-05-03T03:21:29.550Z,6.00
2023-05-03T03:23:57.142Z,6.53
2023-05-03T03:26:26.148Z,7.40
2023-05-03T03:28:53.739Z,6.07
2023-05-03T03:31:23.038Z,6.93
2023-05-03T03:33:51.082Z,7.10
2023-05-03T03:36:21.264Z,7.03
2023-05-03T03:38:49.941Z,7.80
2023-05-03T03:41:19.291Z,7.40
2023-05-03T03:43:47.451Z,7.03
2023-05-03T03:46:19.070Z,6.37
2023-05-03T03:48:50.987Z,7.17
2023-05-03T03:51:18.574Z,7.47
2023-05-03T03:53:48.180Z,5.97
2023-05-03T03:56:16.516Z,6.50
2023-05-03T03:58:44.092Z,6.50
2023-05-03T04:01:12.901Z,6.33
2023-05-03T04:03:40.762Z,7.13
2023-05-03T04:06:08.646Z,6.63
2023-05-03T04:08:37.149Z,6.93
2023-05-03T04:11:10.380Z,7.53
2023-05-03T04:13:39.743Z,7.47
2023-05-03T04:16:08.132Z,7.33
2023-05-03T04:18:36.666Z,7.30
2023-05-03T04:21:05.343Z,6.87
2023-05-03T04:23:32.987Z,7.00
2023-05-03T04:26:02.618Z,7.67
2023-05-03T04:28:34.699Z,7.35
2023-05-03T04:31:02.406Z,7.23
2023-05-03T04:33:31.641Z,7.50
2023-05-03T04:36:04.455Z,6.83
2023-05-03T04:38:32.732Z,7.17
2023-05-03T04:41:02.742Z,8.17
2023-05-03T04:43:32.909Z,7.03
2023-05-03T04:46:00.843Z,8.57
2023-05-03T04:48:28.413Z,6.80
2023-05-03T04:50:55.923Z,7.30
2023-05-03T04:53:24.544Z,7.00
2023-05-03T04:56:01.288Z,9.80
2023-05-03T04:58:31.027Z,9.47
2023-05-03T05:00:59.172Z,8.57
2023-05-03T05:03:31.481Z,8.37
2023-05-03T05:06:01.623Z,7.53
2023-05-03T05:08:30.718Z,8.50
2023-05-03T05:10:58.949Z,8.57
2023-05-03T05:13:31.755Z,7.57
2023-05-03T05:15:59.265Z,7.13
2023-05-03T05:18:26.821Z,8.30
2023-05-03T05:20:56.437Z,7.30
2023-05-03T05:23:26.149Z,7.97
2023-05-03T05:25:54.047Z,7.10
2023-05-03T05:28:21.938Z,8.13
2023-05-03T05:30:49.447Z,7.30
2023-05-03T05:33:19.077Z,8.67
2023-05-03T05:35:49.051Z,8.23
2023-05-03T05:38:18.644Z,8.07
2023-05-03T05:40:46.154Z,7.77
2023-05-03T05:43:13.684Z,7.90
2023-05-03T05:45:44.146Z,7.97
2023-05-03T05:48:12.208Z,7.87
2023-05-03T05:50:41.057Z,8.60
2023-05-03T05:53:11.809Z,8.60
2023-05-03T05:55:44.661Z,8.63
2023-05-03T05:58:13.735Z,8.87
2023-05-03T06:00:48.887Z,7.95
2023-05-03T06:03:17.065Z,8.40
2023-05-03T06:05:45.484Z,7.60
2023-05-03T06:08:13.027Z,7.10
2023-05-03T06:10:40.821Z,8.87
2023-05-03T06:13:08.370Z,8.60
2023-05-03T06:15:36.064Z,7.67
2023-05-03T06:18:04.604Z,8.47
2023-05-03T06:20:32.446Z,9.57
2023-05-03T06:23:00.428Z,8.47
2023-05-03T06:25:27.952Z,8.60
2023-05-03T06:27:55.482Z,8.90
2023-05-03T06:30:28.288Z,8.87
2023-05-03T06:32:59.714Z,7.88
2023-05-03T06:35:28.470Z,8.63
2023-05-03T06:37:55.993Z,8.90
2023-05-03T06:40:25.827Z,7.67
2023-05-03T06:42:53.327Z,7.73
2023-05-03T06:45:35.261Z,8.47
2023-05-03T06:48:02.978Z,9.20
2023-05-03T06:50:30.732Z,8.07
2023-05-03T06:52:58.233Z,8.70
2023-05-03T06:55:25.788Z,10.00
2023-05-03T06:57:53.703Z,8.37
2023-05-03T07:00:23.186Z,9.73
2023-05-03T07:02:50.806Z,10.07
2023-05-03T07:05:18.414Z,9.33
2023-05-03T07:07:46.215Z,8.93
2023-05-03T07:10:13.743Z,8.67
2023-05-03T07:12:41.337Z,7.67
2023-05-03T07:15:10.085Z,9.00
2023-05-03T07:17:37.635Z,8.70
2023-05-03T07:20:06.635Z,8.50
2023-05-03T07:22:36.063Z,9.60
2023-05-03T07:25:04.879Z,8.37
2023-05-03T07:27:32.470Z,8.63
2023-05-03T07:30:00.503Z,9.53
2023-05-03T07:32:28.122Z,8.67
2023-05-03T07:34:55.662Z,9.80
2023-05-03T07:37:23.311Z,7.72
2023-05-03T07:39:50.963Z,8.73
2023-05-03T07:42:18.743Z,8.35
2023-05-03T07:44:46.304Z,9.27
2023-05-03T07:47:13.790Z,9.13
2023-05-03T07:49:41.349Z,8.98
2023-05-03T07:52:09.847Z,8.55
2023-05-03T07:54:37.399Z,9.40
2023-05-03T07:57:06.162Z,8.88
2023-05-03T07:59:33.640Z,8.55
2023-05-03T08:02:01.854Z,8.93
2023-05-03T08:04:29.798Z,9.75
2023-05-03T08:07:04.162Z,9.13
2023-05-03T08:09:31.650Z,8.18
2023-05-03T08:11:59.201Z,8.68
2023-05-03T08:14:27.594Z,9.02
2023-05-03T08:16:55.424Z,8.82
2023-05-03T08:19:23.092Z,9.23
2023-05-03T08:21:54.129Z,9.20
2023-05-03T08:24:23.044Z,8.65
2023-05-03T08:26:50.931Z,10.40
2023-05-03T08:29:18.581Z,10.07
2023-05-03T08:31:46.462Z,9.40
2023-05-03T08:34:14.009Z,10.13
2023-05-03T08:36:41.538Z,9.40
2023-05-03T08:39:10.290Z,9.23
2023-05-03T08:41:40.248Z,9.20
2023-05-03T08:44:11.329Z,9.68
2023-05-03T08:46:39.009Z,9.52
2023-05-03T08:49:07.533Z,9.07
2023-05-03T08:51:40.276Z,9.30
2023-05-03T08:54:08.596Z,9.60
2023-05-03T08:56:44.013Z,10.02
2023-05-03T08:59:11.892Z,9.60
2023-05-03T09:01:41.624Z,10.65
2023-05-03T09:04:11.333Z,9.00
2023-05-03T09:06:39.623Z,9.70
2023-05-03T09:09:08.410Z,10.43
2023-05-03T09:11:38.903Z,9.85
2023-05-03T09:14:16.379Z,10.05
2023-05-03T09:16:46.523Z,9.10
2023-05-03T09:19:15.712Z,10.07
2023-05-03T09:21:49.084Z,9.80
2023-05-03T09:24:22.016Z,8.95
2023-05-03T09:26:51.945Z,9.32
2023-05-03T09:29:35.920Z,9.18
2023-05-03T09:32:06.246Z,9.90
2023-05-03T09:34:35.212Z,9.57
2023-05-03T09:37:02.916Z,10.80
2023-05-03T09:39:30.494Z,9.18
2023-05-03T09:41:58.398Z,8.82
2023-05-03T09:44:44.221Z,9.35
2023-05-03T09:47:12.352Z,9.35
2023-05-03T09:49:39.976Z,9.88
2023-05-03T09:52:08.853Z,8.52
2023-05-03T09:54:36.909Z,8.60
2023-05-03T09:57:07.095Z,9.57
2023-05-03T09:59:37.483Z,9.20
2023-05-03T10:02:08.291Z,8.25
2023-05-03T10:04:48.138Z,8.48
2023-05-03T10:07:20.163Z,9.55
2023-05-03T10:09:48.799Z,9.02
2023-05-03T10:12:19.360Z,8.63
2023-05-03T10:14:49.973Z,9.30
2023-05-03T10:17:46.164Z,8.82
2023-05-03T10:20:33.512Z,8.07
2023-05-03T10:23:13.743Z,8.98
2023-05-03T10:26:07.270Z,7.63
2023-05-03T10:28:34.903Z,8.33
2023-05-03T10:31:03.094Z,7.50
2023-05-03T10:33:37.238Z,7.97
2023-05-03T10:36:07.362Z,7.70
2023-05-03T10:38:36.748Z,8.10
2023-05-03T10:41:06.649Z,10.15
2023-05-03T10:43:34.095Z,7.88
2023-05-03T10:46:03.281Z,8.57
2023-05-03T10:48:32.545Z,8.68
2023-05-03T10:51:32.843Z,7.70
2023-05-03T10:54:00.452Z,7.30
2023-05-03T10:56:28.002Z,7.60
2023-05-03T10:58:58.570Z,7.82
2023-05-03T11:01:27.858Z,8.70
2023-05-03T11:04:19.676Z,6.82
2023-05-03T11:06:51.054Z,6.50
2023-05-03T11:09:18.746Z,6.88
2023-05-03T11:11:46.350Z,6.40
2023-05-03T11:14:14.032Z,5.75
2023-05-03T11:16:47.796Z,6.30
2023-05-03T11:19:16.192Z,6.78
2023-05-03T11:21:46.273Z,6.60
2023-05-03T11:24:15.502Z,7.47
2023-05-03T11:26:43.083Z,7.22
2023-05-03T11:29:11.784Z,6.10
2023-05-03T11:31:42.864Z,6.18
2023-05-03T11:34:12.356Z,6.38
2023-05-03T11:36:42.121Z,5.93
2023-05-03T11:39:11.600Z,6.25
2023-05-03T11:41:39.265Z,6.03
2023-05-03T11:44:15.879Z,6.55
2023-05-03T11:46:46.801Z,5.85
2023-05-03T11:49:18.764Z,6.03
2023-05-03T11:51:49.888Z,5.13
2023-05-03T11:54:26.068Z,6.75
2023-05-03T11:56:59.533Z,6.63
2023-05-03T11:59:40.982Z,6.20
2023-05-03T12:02:12.604Z,5.95
2023-05-03T12:04:43.203Z,5.68
2023-05-03T12:07:13.192Z,6.63
2023-05-03T12:09:43.568Z,6.03
2023-05-03T12:12:24.086Z,6.55
2023-05-03T12:15:03.726Z,6.20
2023-05-03T12:17:44.437Z,5.80
2023-05-03T12:22:57.949Z,5.90
2023-05-03T12:25:28.220Z,7.05
2023-05-03T12:28:18.805Z,6.05
2023-05-03T12:30:47.790Z,5.88
2023-05-03T12:33:17.021Z,5.50
2023-05-03T12:35:47.722Z,5.00
2023-05-03T12:38:17.459Z,5.10
2023-05-03T12:40:46.808Z,5.35
2023-05-03T12:43:14.842Z,5.10
2023-05-03T12:45:46.484Z,5.38
2023-05-03T12:48:17.732Z,4.60
2023-05-03T12:50:45.889Z,4.78
2023-05-03T12:53:16.913Z,5.00
2023-05-03T12:55:50.679Z,4.78
2023-05-03T13:01:15.785Z,4.88
2023-05-03T13:03:43.425Z,4.90
2023-05-03T13:06:14.643Z,5.65
2023-05-03T13:11:13.359Z,5.25
2023-05-03T13:13:40.993Z,5.40
2023-05-03T13:16:09.276Z,5.45
2023-05-03T13:18:37.114Z,4.78
2023-05-03T13:21:05.012Z,6.35
2023-05-03T13:23:33.910Z,6.15
2023-05-03T13:26:01.392Z,6.05
2023-05-03T13:28:28.965Z,5.95
2023-05-03T13:30:57.094Z,4.78
2023-05-03T13:33:25.109Z,5.93
2023-05-03T13:35:52.658Z,5.10
2023-05-03T13:38:20.656Z,6.05
2023-05-03T13:40:48.177Z,6.63
2023-05-03T13:43:15.789Z,5.70
2023-05-03T13:45:43.282Z,5.00
2023-05-03T13:48:18.774Z,5.22
2023-05-03T13:50:46.902Z,5.53
2023-05-03T13:53:14.860Z,5.10
2023-05-03T13:55:42.415Z,4.28
2023-05-03T13:58:09.915Z,4.75
2023-05-03T14:00:37.442Z,4.75
2023-05-03T14:03:06.468Z,5.63
2023-05-03T14:05:34.784Z,4.95
2023-05-03T14:08:02.265Z,5.05
2023-05-03T14:10:29.760Z,5.22
2023-05-03T14:12:57.929Z,5.10
2023-05-03T14:15:25.663Z,5.00
2023-05-03T14:17:54.131Z,4.53
2023-05-03T14:20:23.777Z,4.75
2023-05-03T14:22:51.319Z,4.05
2023-05-03T14:25:19.440Z,4.10
2023-05-03T14:27:47.232Z,4.10
2023-05-03T14:30:15.348Z,3.38
2023-05-03T14:32:42.862Z,3.65
2023-05-03T14:35:10.537Z,3.60
2023-05-03T14:37:38.117Z,5.40
2023-05-03T14:40:07.843Z,5.00
2023-05-03T14:42:35.668Z,4.35
2023-05-03T14:45:04.017Z,4.82
2023-05-03T14:47:32.134Z,4.43
2023-05-03T14:49:59.912Z,4.63
2023-05-03T14:52:27.781Z,4.43
2023-05-03T14:54:55.360Z,4.47
2023-05-03T14:57:22.865Z,3.70
2023-05-03T14:59:50.653Z,3.38
2023-05-03T15:02:19.152Z,3.60
2023-05-03T15:04:46.833Z,4.00
2023-05-03T15:07:15.375Z,4.00
2023-05-03T15:09:44.700Z,4.30
2023-05-03T15:12:12.177Z,4.03
2023-05-03T15:14:39.747Z,4.35
2023-05-03T15:17:07.252Z,3.88
2023-05-03T15:19:34.783Z,4.43
2023-05-03T15:22:02.337Z,4.50
2023-05-03T15:24:29.906Z,4.15
2023-05-03T15:26:57.380Z,5.40
2023-05-03T15:29:24.904Z,4.60
2023-05-03T15:31:52.783Z,4.05
2023-05-03T15:34:20.482Z,3.40
2023-05-03T15:36:48.035Z,3.67
2023-05-03T15:39:15.839Z,3.72
2023-05-03T15:41:45.426Z,4.32
2023-05-03T15:44:14.796Z,3.95
2023-05-03T15:46:43.117Z,3.85
2023-05-03T15:49:11.945Z,4.57
2023-05-03T15:51:39.469Z,4.53
2023-05-03T15:54:07.099Z,3.88
2023-05-03T15:56:34.675Z,3.72
2023-05-03T15:59:02.182Z,4.38
2023-05-03T16:01:29.744Z,4.25
2023-05-03T16:03:57.290Z,4.05
2023-05-03T16:06:24.860Z,4.53
2023-05-03T16:08:52.543Z,4.55
2023-05-03T16:11:20.122Z,4.28
2023-05-03T16:13:47.898Z,3.97
2023-05-03T16:16:15.571Z,3.80
2023-05-03T16:18:43.102Z,3.83
2023-05-03T16:21:11.315Z,3.60
2023-05-03T16:23:38.833Z,3.72
2023-05-03T16:26:14.299Z,4.13
2023-05-03T16:28:41.841Z,3.75
2023-05-03T16:31:09.401Z,3.90
2023-05-03T16:33:36.929Z,4.15
2023-05-03T16:36:04.898Z,4.18
2023-05-03T16:38:32.431Z,3.30
2023-05-03T16:41:01.636Z,3.97
2023-05-03T16:43:30.147Z,3.15
2023-05-03T16:46:01.491Z,4.05
2023-05-03T16:48:33.170Z,3.72
2023-05-03T16:51:00.896Z,3.33
2023-05-03T16:53:28.496Z,3.83
2023-05-03T16:55:56.508Z,3.42
2023-05-03T16:58:24.041Z,4.05
2023-05-03T17:00:51.988Z,3.42
2023-05-03T17:03:19.622Z,3.97
2023-05-03T17:05:47.347Z,3.60
2023-05-03T17:08:15.371Z,4.45
2023-05-03T17:10:43.216Z,4.80
2023-05-03T17:13:11.093Z,3.38
2023-05-03T17:15:39.003Z,3.95
2023-05-03T17:18:06.789Z,3.75
2023-05-03T17:20:35.161Z,3.75
2023-05-03T17:23:02.664Z,4.00
2023-05-03T17:25:30.429Z,3.85
2023-05-03T17:27:58.479Z,3.35
2023-05-03T17:30:26.214Z,4.00
2023-05-03T17:32:54.209Z,4.00
2023-05-03T17:35:21.820Z,3.83
2023-05-03T17:37:49.510Z,3.40
2023-05-03T17:40:17.094Z,3.53
2023-05-03T17:42:46.832Z,3.80
2023-05-03T17:45:14.621Z,3.60
2023-05-03T17:47:42.196Z,4.40
2023-05-03T17:50:11.724Z,3.38
2023-05-03T17:52:40.532Z,3.45
2023-05-03T17:55:08.636Z,3.92
2023-05-03T17:57:37.358Z,3.50
2023-05-03T18:00:06.934Z,3.75
2023-05-03T18:02:34.758Z,3.67
2023-05-03T18:05:03.191Z,3.53
2023-05-03T18:07:30.677Z,3.25
2023-05-03T18:09:59.545Z,3.67
2023-05-03T18:12:30.455Z,3.33
2023-05-03T18:15:00.654Z,3.40
2023-05-03T18:17:29.667Z,4.22
2023-05-03T18:19:57.231Z,4.13
2023-05-03T18:22:27.414Z,3.50
2023-05-03T18:24:55.286Z,3.47
2023-05-03T18:27:22.777Z,3.92
2023-05-03T18:29:50.653Z,3.65
2023-05-03T18:32:18.166Z,3.88
2023-05-03T18:34:45.707Z,3.15
2023-05-03T18:37:13.449Z,3.70
2023-05-03T18:39:40.967Z,3.70
2023-05-03T18:42:08.531Z,3.17
2023-05-03T18:44:36.103Z,3.28
2023-05-03T18:47:03.693Z,3.28
2023-05-03T18:49:31.242Z,3.58
2023-05-03T18:51:58.938Z,4.10
2023-05-03T18:54:26.494Z,3.38
2023-05-03T18:56:54.087Z,3.67
2023-05-03T18:59:21.590Z,3.88
2023-05-03T19:01:50.163Z,3.58
2023-05-03T19:04:17.800Z,4.55
2023-05-03T19:06:45.541Z,4.43
2023-05-03T19:09:13.603Z,3.60
2023-05-03T19:11:42.716Z,3.80
2023-05-03T19:14:10.360Z,3.80
2023-05-03T19:16:38.010Z,4.53
2023-05-03T19:19:05.493Z,4.28
2023-05-03T19:21:34.842Z,3.70
2023-05-03T19:24:02.524Z,4.30
2023-05-03T19:26:30.051Z,3.97
2023-05-03T19:28:57.529Z,4.47
2023-05-03T19:31:25.080Z,4.40
2023-05-03T19:33:52.727Z,3.72
2023-05-03T19:36:20.226Z,4.40
2023-05-03T19:38:47.756Z,4.20
2023-05-03T19:41:15.249Z,5.25
2023-05-03T19:43:42.784Z,5.18
2023-05-03T19:46:10.721Z,9.27
2023-05-03T19:48:38.277Z,13.95
2023-05-03T19:51:05.818Z,10.25
2023-05-03T19:53:33.806Z,6.90
2023-05-03T19:56:02.809Z,5.15
2023-05-03T19:58:31.924Z,4.50
2023-05-03T20:00:59.643Z,4.82
2023-05-03T20:03:27.647Z,4.47
2023-05-03T20:05:55.411Z,5.32
2023-05-03T20:08:24.129Z,4.65
2023-05-03T20:10:51.772Z,4.38
2023-05-03T20:13:19.414Z,4.32
2023-05-03T20:15:47.055Z,3.95
2023-05-03T20:18:15.211Z,4.20
2023-05-03T20:20:43.344Z,3.95
2023-05-03T20:23:11.845Z,4.40
2023-05-03T20:25:39.390Z,4.68
2023-05-03T20:28:06.974Z,4.53
2023-05-03T20:30:34.736Z,5.60
2023-05-03T20:33:02.497Z,4.38
2023-05-03T20:35:30.230Z,4.47
2023-05-03T20:37:57.782Z,4.22
2023-05-03T20:40:25.411Z,4.90
2023-05-03T20:42:52.897Z,4.47
2023-05-03T20:45:20.416Z,4.72
2023-05-03T20:47:48.021Z,4.95
2023-05-03T20:50:15.548Z,4.25
2023-05-03T20:52:43.173Z,4.50
2023-05-03T20:55:10.700Z,4.50
2023-05-03T20:57:42.062Z,5.05
2023-05-03T21:00:15.700Z,5.00
2023-05-03T21:05:11.297Z,4.40
2023-05-03T21:07:39.110Z,4.78
2023-05-03T21:10:08.069Z,4.43
2023-05-03T21:12:35.773Z,4.93
2023-05-03T21:15:03.558Z,4.38
2023-05-03T21:17:31.098Z,4.07
2023-05-03T21:19:58.629Z,4.47
2023-05-03T21:22:26.796Z,4.60
2023-05-03T21:24:54.757Z,4.25
2023-05-03T21:27:22.334Z,4.53
2023-05-03T21:29:49.846Z,4.28
2023-05-03T21:32:17.441Z,4.60
2023-05-03T21:34:44.977Z,4.07
2023-05-03T21:37:12.478Z,4.63
2023-05-03T21:39:40.020Z,4.10
2023-05-03T21:42:07.525Z,4.90
2023-05-03T21:44:35.105Z,4.80
2023-05-03T21:47:03.058Z,4.30
2023-05-03T21:49:30.583Z,4.97
2023-05-03T21:51:58.152Z,5.18
2023-05-03T21:54:26.836Z,4.57
2023-05-03T21:56:54.306Z,4.60
2023-05-03T21:59:21.843Z,4.72
2023-05-03T22:01:50.186Z,4.50
2023-05-03T22:04:17.792Z,4.57
2023-05-03T22:06:45.612Z,4.15
2023-05-03T22:09:13.147Z,4.57
2023-05-03T22:11:41.357Z,4.40
2023-05-03T22:14:09.248Z,4.28
2023-05-03T22:16:42.157Z,4.90
2023-05-03T22:19:10.063Z,4.35
2023-05-03T22:21:37.555Z,4.93
2023-05-03T22:24:05.465Z,4.65
2023-05-03T22:26:33.034Z,4.57
2023-05-03T22:29:00.985Z,5.65
2023-05-03T22:31:30.145Z,5.13
2023-05-03T22:33:57.819Z,4.30
2023-05-03T22:36:25.427Z,4.30
2023-05-03T22:39:00.547Z,4.13
2023-05-03T22:41:28.096Z,4.65
2023-05-03T22:43:55.616Z,4.72
2023-05-03T22:46:23.911Z,4.85
2023-05-03T22:48:51.858Z,4.57
2023-05-03T22:51:19.354Z,4.53
2023-05-03T22:53:46.862Z,4.30
2023-05-03T22:56:14.438Z,4.78
2023-05-03T22:58:42.092Z,4.68
2023-05-03T23:01:12.482Z,4.75
2023-05-03T23:03:41.056Z,4.90
2023-05-03T23:06:08.814Z,4.80
2023-05-03T23:08:36.377Z,5.00
2023-05-03T23:11:04.228Z,5.05
2023-05-03T23:13:31.758Z,5.25
2023-05-03T23:15:59.748Z,5.00
2023-05-03T23:18:27.413Z,5.07
2023-05-03T23:20:55.246Z,5.55
2023-05-03T23:23:23.656Z,4.63
2023-05-03T23:25:52.078Z,5.10
2023-05-03T23:28:20.849Z,4.57
2023-05-03T23:30:49.304Z,5.03
2023-05-03T23:33:17.219Z,4.78
2023-05-03T23:35:45.054Z,4.53
2023-05-03T23:38:12.593Z,4.85
2023-05-03T23:40:40.153Z,4.35
2023-05-03T23:43:07.708Z,5.20
2023-05-03T23:45:35.564Z,4.85
2023-05-03T23:48:03.137Z,4.63
2023-05-03T23:50:30.731Z,5.35
2023-05-03T23:52:58.766Z,5.50
2023-05-03T23:55:26.273Z,5.25
2023-05-03T23:57:53.785Z,5.47
